Time;durP1;ratioP1;P1;durP2;ratioP2;P2;SDS_P1;SDS_P2;PMS_P1;PMS_P2;Temp;Humidity;BMP_temperature;BMP_pressure;BME280_temperature;BME280_humidity;BME280_pressure;Samples;Min_cycle;Max_cycle;Signal;HPM_P1;HPM_P2
2022/06/05 00:00:59;;;;;;;1999.90;999.90;;;13.10;99.90;;;;;;5001445;28;20464;-71
2022/06/05 00:03:39;;;;;;;1999.90;999.90;;;13.10;99.90;;;;;;4999789;28;20464;-74
2022/06/05 00:06:13;;;;;;;1999.90;999.90;;;13.00;99.90;;;;;;5003848;28;20461;-71
2022/06/05 00:08:50;;;;;;;1999.90;999.90;;;12.90;99.90;;;;;;5000437;28;21014;-71
2022/06/05 00:11:17;;;;;;;1999.90;999.90;;;12.90;99.90;;;;;;5002459;28;20464;-71
2022/06/05 00:13:46;;;;;;;1999.90;999.90;;;12.80;99.90;;;;;;5001598;28;20551;-71
2022/06/05 00:16:14;;;;;;;1999.90;999.90;;;12.80;99.90;;;;;;4998813;28;20586;-71
2022/06/05 00:18:45;;;;;;;1999.90;999.90;;;12.80;99.90;;;;;;4999617;28;21000;-71
2022/06/05 00:21:12;;;;;;;1999.90;999.90;;;12.80;99.90;;;;;;5001103;28;20519;-71
2022/06/05 00:23:39;;;;;;;1999.90;999.90;;;12.90;99.90;;;;;;4998704;28;20470;-70
2022/06/05 00:26:17;;;;;;;1999.90;999.90;;;12.80;99.90;;;;;;5004055;28;20881;-72
2022/06/05 00:28:53;;;;;;;1999.90;999.90;;;12.80;99.90;;;;;;5002302;28;20881;-71
2022/06/05 00:31:30;;;;;;;1999.90;999.90;;;12.70;99.90;;;;;;5001137;28;21026;-71
2022/06/05 00:33:58;;;;;;;1999.90;999.90;;;12.70;99.90;;;;;;5000791;28;20488;-71
2022/06/05 00:36:45;;;;;;;1999.90;999.90;;;12.70;99.90;;;;;;5002234;28;21031;-71
2022/06/05 00:39:18;;;;;;;1999.90;999.90;;;12.90;99.90;;;;;;4990967;28;20534;-74
2022/06/05 00:41:58;;;;;;;1999.90;999.90;;;12.90;99.90;;;;;;5003867;28;20553;-73
2022/06/05 00:44:31;;;;;;;1999.90;999.90;;;12.90;99.90;;;;;;5003459;28;20494;-69
2022/06/05 00:46:59;;;;;;;1999.90;999.90;;;12.90;99.90;;;;;;5000439;28;20980;-70
2022/06/05 00:49:41;;;;;;;1999.90;999.90;;;12.80;99.90;;;;;;5000628;28;20509;-73
2022/06/05 00:52:12;;;;;;;1999.90;999.90;;;12.80;99.90;;;;;;4997344;28;20475;-70
2022/06/05 00:54:39;;;;;;;1999.90;999.90;;;12.70;99.90;;;;;;4998365;28;20517;-68
2022/06/05 00:57:09;;;;;;;1999.90;999.90;;;12.80;99.90;;;;;;5000707;28;20870;-70
2022/06/05 00:59:36;;;;;;;1999.90;999.90;;;12.80;99.90;;;;;;5003729;28;20491;-67
2022/06/05 01:02:03;;;;;;;1999.90;999.90;;;12.60;99.90;;;;;;5003106;28;20486;-69
2022/06/05 01:04:33;;;;;;;1999.90;999.90;;;12.40;99.90;;;;;;5008481;28;20503;-70
2022/06/05 01:07:00;;;;;;;1999.90;999.90;;;12.40;99.90;;;;;;5001162;28;20457;-70
2022/06/05 01:09:27;;;;;;;1999.90;999.90;;;12.20;99.90;;;;;;5003808;28;20457;-75
2022/06/05 01:12:07;;;;;;;1999.90;999.90;;;12.20;99.90;;;;;;5000356;28;20546;-70
2022/06/05 01:14:47;;;;;;;1999.90;999.90;;;12.00;99.90;;;;;;5002026;28;20493;-73
2022/06/05 01:17:22;;;;;;;1999.90;999.90;;;11.80;99.90;;;;;;5002093;28;20503;-71
2022/06/05 01:19:58;;;;;;;1999.90;999.90;;;11.60;99.90;;;;;;4994137;28;20511;-70
2022/06/05 01:23:04;;;;;;;1999.90;999.90;;;11.60;99.90;;;;;;4992976;28;20455;-71
2022/06/05 01:25:48;;;;;;;1999.90;999.90;;;11.70;99.90;;;;;;4989547;28;21014;-70
2022/06/05 01:28:18;;;;;;;1999.90;999.90;;;11.80;99.90;;;;;;5000598;28;20460;-70
2022/06/05 01:30:52;;;;;;;1999.90;999.90;;;11.80;99.90;;;;;;4999422;28;20526;-71
2022/06/05 01:33:23;;;;;;;1999.90;999.90;;;11.90;99.90;;;;;;5004292;28;20487;-70
2022/06/05 01:36:02;;;;;;;1999.90;999.90;;;12.00;99.90;;;;;;4999360;28;20464;-73
2022/06/05 01:38:42;;;;;;;1999.90;999.90;;;12.20;99.90;;;;;;5000016;28;20453;-69
2022/06/05 01:41:15;;;;;;;1999.90;999.90;;;12.10;99.90;;;;;;4999836;28;20468;-69
2022/06/05 01:43:46;;;;;;;1999.90;999.90;;;12.20;99.90;;;;;;4998544;28;20463;-70
2022/06/05 01:46:18;;;;;;;1999.90;999.90;;;12.30;99.90;;;;;;4998770;28;20478;-70
2022/06/05 01:48:50;;;;;;;1999.90;999.90;;;12.40;99.90;;;;;;4998570;28;20452;-73
2022/06/05 01:51:23;;;;;;;1999.90;999.90;;;12.40;99.90;;;;;;4998342;28;20469;-70
2022/06/05 01:53:52;;;;;;;1999.90;999.90;;;12.30;99.90;;;;;;4999948;28;20937;-70
2022/06/05 01:56:26;;;;;;;1999.90;999.90;;;12.30;99.90;;;;;;4999932;28;20543;-70
2022/06/05 01:58:56;;;;;;;1999.90;999.90;;;12.40;99.90;;;;;;5002340;28;20472;-71
2022/06/05 02:01:28;;;;;;;1999.90;999.90;;;12.40;99.90;;;;;;5000190;28;20473;-71
2022/06/05 02:03:58;;;;;;;1999.90;999.90;;;12.50;99.90;;;;;;5000718;28;20602;-70
2022/06/05 02:06:33;;;;;;;1999.90;999.90;;;12.70;99.90;;;;;;5000773;28;20483;-70
2022/06/05 02:09:04;;;;;;;1999.90;999.90;;;12.90;99.90;;;;;;5000220;28;20460;-71
2022/06/05 02:11:34;;;;;;;1999.90;999.90;;;13.00;99.90;;;;;;5002424;28;21100;-70
2022/06/05 02:14:03;;;;;;;1999.90;999.90;;;13.00;99.90;;;;;;5000782;28;20489;-69
2022/06/05 02:16:32;;;;;;;1999.90;999.90;;;13.00;99.90;;;;;;5003439;28;20519;-70
2022/06/05 02:19:02;;;;;;;1999.90;999.90;;;13.00;99.90;;;;;;4997027;28;21016;-68
2022/06/05 02:21:29;;;;;;;1999.90;999.90;;;13.00;99.90;;;;;;5003360;28;20488;-72
2022/06/05 02:23:57;;;;;;;1999.90;999.90;;;13.10;99.90;;;;;;5000108;28;20497;-70
2022/06/05 02:26:24;;;;;;;1999.90;999.90;;;13.10;99.90;;;;;;4999538;28;20507;-72
2022/06/05 02:28:52;;;;;;;1999.90;999.90;;;13.20;99.90;;;;;;4999281;28;20951;-75
2022/06/05 02:31:30;;;;;;;1999.90;999.90;;;13.20;99.90;;;;;;4999637;28;20464;-72
2022/06/05 02:34:07;;;;;;;1999.90;999.90;;;13.20;99.90;;;;;;4999118;28;20583;-71
2022/06/05 02:36:42;;;;;;;1999.90;999.90;;;13.20;99.90;;;;;;5002533;28;21172;-71
2022/06/05 02:39:15;;;;;;;1999.90;999.90;;;13.30;99.90;;;;;;4998973;28;20491;-71
2022/06/05 02:41:48;;;;;;;1999.90;999.90;;;13.30;99.90;;;;;;4998533;28;20514;-71
2022/06/05 02:44:30;;;;;;;1999.90;999.90;;;13.40;99.90;;;;;;5000318;28;20519;-75
2022/06/05 02:47:10;;;;;;;1999.90;999.90;;;13.30;99.90;;;;;;5001194;28;22640;-71
2022/06/05 02:49:43;;;;;;;1999.90;999.90;;;13.20;99.90;;;;;;5002470;28;20468;-69
2022/06/05 02:52:10;;;;;;;1999.90;999.90;;;13.20;99.90;;;;;;5001139;28;21005;-71
2022/06/05 02:54:41;;;;;;;1999.90;999.90;;;13.10;99.90;;;;;;4998045;28;21033;-68
2022/06/05 02:57:08;;;;;;;1999.90;999.90;;;13.10;99.90;;;;;;4998872;28;20458;-69
2022/06/05 02:59:36;;;;;;;1999.90;999.90;;;12.90;99.90;;;;;;5001675;28;20483;-69
2022/06/05 03:04:47;;;;;;;1999.90;999.90;;;12.80;99.90;;;;;;4998726;28;20986;-71
2022/06/05 03:07:14;;;;;;;1999.90;999.90;;;12.70;99.90;;;;;;4997527;28;20460;-70
2022/06/05 03:09:41;;;;;;;1999.90;999.90;;;12.70;99.90;;;;;;5001307;28;20522;-70
2022/06/05 03:12:08;;;;;;;1999.90;999.90;;;12.70;99.90;;;;;;5001787;28;20892;-70
2022/06/05 03:14:36;;;;;;;1999.90;999.90;;;12.50;99.90;;;;;;5003376;28;20518;-69
2022/06/05 03:17:03;;;;;;;1999.90;999.90;;;12.20;99.90;;;;;;4998027;28;20468;-70
2022/06/05 03:19:30;;;;;;;1999.90;999.90;;;12.00;99.90;;;;;;5003879;28;20484;-74
2022/06/05 03:21:57;;;;;;;1999.90;999.90;;;11.80;99.90;;;;;;5004502;28;20468;-70
2022/06/05 03:24:23;;;;;;;1999.90;999.90;;;11.80;99.90;;;;;;5012265;28;20875;-70
2022/06/05 03:26:51;;;;;;;1999.90;999.90;;;11.90;99.90;;;;;;4996834;28;20449;-70
2022/06/05 03:29:18;;;;;;;1999.90;999.90;;;12.20;99.90;;;;;;5002102;28;20492;-71
2022/06/05 03:31:46;;;;;;;1999.90;999.90;;;12.20;99.90;;;;;;5003499;28;20478;-74
2022/06/05 03:34:12;;;;;;;1999.90;999.90;;;12.30;99.90;;;;;;5002969;28;20488;-70
2022/06/05 03:36:39;;;;;;;1999.90;999.90;;;12.40;99.90;;;;;;5005412;28;20468;-69
2022/06/05 03:39:06;;;;;;;1999.90;999.90;;;12.60;99.90;;;;;;5002844;28;20513;-69
2022/06/05 03:41:32;;;;;;;1999.90;999.90;;;12.60;99.90;;;;;;5004985;28;20506;-71
2022/06/05 03:43:59;;;;;;;1999.90;999.90;;;12.60;99.90;;;;;;5002424;28;21041;-70
2022/06/05 03:46:26;;;;;;;1999.90;999.90;;;12.70;99.90;;;;;;5002793;28;20535;-71
2022/06/05 03:48:54;;;;;;;1999.90;999.90;;;12.80;99.90;;;;;;5003354;28;20498;-70
2022/06/05 03:51:23;;;;;;;1999.90;999.90;;;12.80;99.90;;;;;;5004653;28;20469;-71
2022/06/05 03:53:50;;;;;;;1999.90;999.90;;;12.70;99.90;;;;;;5003977;28;20489;-70
2022/06/05 03:56:19;;;;;;;1999.90;999.90;;;12.70;99.90;;;;;;5004255;28;20492;-70
2022/06/05 03:58:47;;;;;;;1999.90;999.90;;;12.70;99.90;;;;;;5002659;28;20464;-70
2022/06/05 04:01:16;;;;;;;1999.90;999.90;;;12.90;99.90;;;;;;5000413;28;20991;-70
2022/06/05 04:03:43;;;;;;;1999.90;999.90;;;12.70;99.90;;;;;;5003486;28;20470;-69
2022/06/05 04:06:13;;;;;;;1999.90;999.90;;;12.80;99.90;;;;;;5003443;28;20879;-70
2022/06/05 04:08:41;;;;;;;1999.90;999.90;;;12.70;99.90;;;;;;5002337;28;20514;-68
2022/06/05 04:11:10;;;;;;;1999.90;999.90;;;12.80;99.90;;;;;;5001863;28;20999;-70
2022/06/05 04:13:37;;;;;;;1999.90;999.90;;;12.90;99.90;;;;;;5001530;28;20468;-69
2022/06/05 04:16:10;;;;;;;1999.90;999.90;;;13.00;99.90;;;;;;5000974;28;20469;-70
2022/06/05 04:18:37;;;;;;;1999.90;999.90;;;13.00;99.90;;;;;;5000676;28;20896;-69
2022/06/05 04:21:07;;;;;;;1999.90;999.90;;;13.00;99.90;;;;;;5002618;28;20567;-70
2022/06/05 04:23:35;;;;;;;1999.90;999.90;;;13.00;99.90;;;;;;5004416;28;21191;-74
2022/06/05 04:26:02;;;;;;;1999.90;999.90;;;13.00;99.90;;;;;;5001962;28;20476;-70
2022/06/05 04:28:29;;;;;;;1999.90;999.90;;;13.10;99.90;;;;;;5003768;28;20527;-70
2022/06/05 04:30:55;;;;;;;1999.90;999.90;;;13.30;99.90;;;;;;5004209;28;20515;-70
2022/06/05 04:33:22;;;;;;;1999.90;999.90;;;13.40;99.90;;;;;;5005145;28;20465;-75
2022/06/05 04:35:49;;;;;;;1999.90;999.90;;;13.60;99.90;;;;;;5001481;28;20492;-70
2022/06/05 04:38:16;;;;;;;1999.90;999.90;;;13.80;99.90;;;;;;5001275;28;20472;-73
2022/06/05 04:40:45;;;;;;;1999.90;999.90;;;14.00;99.90;;;;;;5002817;28;20484;-68
2022/06/05 04:43:12;;;;;;;1999.90;999.90;;;14.20;99.90;;;;;;5001825;28;20464;-69
2022/06/05 04:45:39;;;;;;;1999.90;999.90;;;14.60;99.90;;;;;;4999120;28;20531;-68
2022/06/05 04:48:06;;;;;;;1999.90;999.90;;;14.70;99.90;;;;;;5002031;28;20473;-74
2022/06/05 04:50:33;;;;;;;1999.90;999.90;;;14.60;99.90;;;;;;5001961;28;20948;-69
2022/06/05 04:53:00;;;;;;;1999.90;999.90;;;14.90;99.90;;;;;;4999098;28;20473;-69
2022/06/05 04:55:26;;;;;;;1999.90;999.90;;;15.00;99.90;;;;;;5002044;28;20551;-71
2022/06/05 04:57:54;;;;;;;1999.90;999.90;;;14.90;99.90;;;;;;5000931;28;20527;-71
2022/06/05 05:00:23;;;;;;;1999.90;999.90;;;15.10;99.90;;;;;;5000702;28;20485;-72
2022/06/05 05:02:49;;;;;;;1999.90;999.90;;;15.30;99.90;;;;;;5001530;28;20500;-69
2022/06/05 05:05:16;;;;;;;1999.90;999.90;;;15.50;99.90;;;;;;4999358;28;20484;-69
2022/06/05 05:07:43;;;;;;;1999.90;999.90;;;15.90;99.90;;;;;;5000704;28;20554;-68
2022/06/05 05:10:10;;;;;;;1999.90;999.90;;;15.70;99.90;;;;;;5000646;28;20468;-69
2022/06/05 05:12:37;;;;;;;1999.90;999.90;;;15.70;99.90;;;;;;4998833;28;20459;-69
2022/06/05 05:15:06;;;;;;;1999.90;999.90;;;15.80;99.90;;;;;;4999102;28;20540;-69
2022/06/05 05:17:33;;;;;;;1999.90;999.90;;;15.90;99.90;;;;;;5001848;28;20467;-68
2022/06/05 05:20:00;;;;;;;1999.90;999.90;;;16.00;99.90;;;;;;5000596;28;20489;-68
2022/06/05 05:22:26;;;;;;;1999.90;999.90;;;16.10;99.90;;;;;;5001019;28;20528;-69
2022/06/05 05:24:53;;;;;;;1999.90;999.90;;;16.00;99.90;;;;;;4998629;28;20484;-70
2022/06/05 05:27:20;;;;;;;1999.90;999.90;;;16.00;99.90;;;;;;5001541;28;20472;-71
2022/06/05 05:29:47;;;;;;;1999.90;999.90;;;15.90;99.90;;;;;;4995495;28;20479;-70
2022/06/05 05:32:15;;;;;;;1999.90;999.90;;;15.90;99.90;;;;;;5000667;28;20948;-69
2022/06/05 05:34:41;;;;;;;1999.90;999.90;;;16.00;99.90;;;;;;5000546;28;20484;-69
2022/06/05 05:37:08;;;;;;;1999.90;999.90;;;16.00;99.90;;;;;;5001177;28;20470;-69
2022/06/05 05:42:19;;;;;;;1999.90;999.90;;;16.40;99.90;;;;;;5000631;28;20920;-66
2022/06/05 05:44:48;;;;;;;1999.90;999.90;;;16.60;99.90;;;;;;5020489;22;20483;-64
2022/06/05 05:47:19;;;;;;;1999.90;999.90;;;16.70;99.90;;;;;;5051483;28;20458;-65
2022/06/05 05:49:46;;;;;;;1999.90;999.90;;;17.00;99.90;;;;;;5054257;28;20458;-64
2022/06/05 05:52:13;;;;;;;1999.90;999.90;;;17.00;99.90;;;;;;5057820;28;20457;-66
2022/06/05 05:54:40;;;;;;;1999.90;999.90;;;17.10;99.90;;;;;;5051497;28;20941;-66
2022/06/05 05:57:08;;;;;;;1999.90;999.90;;;17.30;99.90;;;;;;5049149;28;20459;-65
2022/06/05 05:59:35;;;;;;;1999.90;999.90;;;17.50;99.90;;;;;;5049772;28;20839;-65
2022/06/05 06:02:02;;;;;;;1999.90;999.90;;;17.40;99.90;;;;;;5048522;28;20844;-66
2022/06/05 06:04:30;;;;;;;1999.90;999.90;;;17.30;99.90;;;;;;5049595;28;20470;-65
2022/06/05 06:06:56;;;;;;;1999.90;999.90;;;17.50;99.90;;;;;;5047965;28;20462;-65
2022/06/05 06:09:23;;;;;;;1999.90;999.90;;;17.40;99.90;;;;;;5048375;28;20902;-65
2022/06/05 06:11:50;;;;;;;1999.90;999.90;;;17.50;99.90;;;;;;5048615;28;20462;-67
2022/06/05 06:14:16;;;;;;;1999.90;999.90;;;17.70;99.90;;;;;;5047875;28;20462;-66
2022/06/05 06:16:43;;;;;;;1999.90;999.90;;;17.90;99.90;;;;;;5048775;28;20535;-66
2022/06/05 06:19:10;;;;;;;1999.90;999.90;;;17.80;99.90;;;;;;5048364;28;20457;-66
2022/06/05 06:21:38;;;;;;;1999.90;999.90;;;18.00;99.90;;;;;;5050449;28;20489;-65
2022/06/05 06:24:04;;;;;;;1999.90;999.90;;;18.10;99.90;;;;;;5050023;28;20512;-65
2022/06/05 06:26:31;;;;;;;1999.90;999.90;;;18.20;99.90;;;;;;5050278;28;20477;-65
2022/06/05 06:28:58;;;;;;;1999.90;999.90;;;18.30;99.90;;;;;;5048305;28;21157;-64
2022/06/05 06:31:24;;;;;;;1999.90;999.90;;;18.30;99.90;;;;;;5045355;28;20958;-63
2022/06/05 06:33:51;;;;;;;1999.90;999.90;;;18.40;99.90;;;;;;5048261;28;21195;-65
2022/06/05 06:36:19;;;;;;;1999.90;999.90;;;18.60;99.90;;;;;;5049025;28;20482;-64
2022/06/05 06:38:48;;;;;;;1999.90;999.90;;;18.80;99.90;;;;;;5048253;28;20466;-65
2022/06/05 06:41:17;;;;;;;1999.90;999.90;;;19.10;99.90;;;;;;5048881;28;21062;-66
2022/06/05 06:43:45;;;;;;;1999.90;999.90;;;19.30;99.90;;;;;;5048033;28;20954;-66
2022/06/05 06:46:12;;;;;;;1999.90;999.90;;;19.60;99.90;;;;;;5048252;28;20485;-66
2022/06/05 06:48:39;;;;;;;1999.90;999.90;;;19.50;99.90;;;;;;5045417;28;20466;-65
2022/06/05 06:51:07;;;;;;;1999.90;999.90;;;19.60;99.90;;;;;;5048829;28;20524;-66
2022/06/05 06:53:35;;;;;;;1999.90;999.90;;;19.70;99.90;;;;;;5052999;28;20500;-66
2022/06/05 06:56:09;;;;;;;1999.90;999.90;;;19.70;99.90;;;;;;5051820;28;20487;-66
2022/06/05 06:58:36;;;;;;;1999.90;999.90;;;19.70;99.90;;;;;;5052774;28;20466;-65
2022/06/05 07:01:03;;;;;;;1999.90;999.90;;;19.60;99.90;;;;;;5051812;28;20474;-66
2022/06/05 07:03:30;;;;;;;1999.90;999.90;;;19.40;99.90;;;;;;5052599;28;20462;-67
2022/06/05 07:05:57;;;;;;;1999.90;999.90;;;19.40;99.90;;;;;;5051457;28;20492;-66
2022/06/05 07:08:24;;;;;;;1999.90;999.90;;;19.60;99.90;;;;;;5051903;28;20461;-67
2022/06/05 07:10:50;;;;;;;1999.90;999.90;;;19.80;99.90;;;;;;5050946;28;20470;-66
2022/06/05 07:13:18;;;;;;;1999.90;999.90;;;19.90;99.90;;;;;;5050909;28;20469;-67
2022/06/05 07:15:45;;;;;;;1999.90;999.90;;;20.10;99.90;;;;;;5052048;28;20531;-67
2022/06/05 07:18:12;;;;;;;1999.90;999.90;;;20.30;99.90;;;;;;5050891;28;20830;-67
2022/06/05 07:20:42;;;;;;;1999.90;999.90;;;20.10;99.90;;;;;;5051833;28;20481;-67
2022/06/05 07:23:09;;;;;;;1999.90;999.90;;;20.20;99.90;;;;;;5052068;28;20454;-67
2022/06/05 07:25:37;;;;;;;1999.90;999.90;;;20.30;99.90;;;;;;5048337;28;20489;-66
2022/06/05 07:28:05;;;;;;;1999.90;999.90;;;20.40;99.90;;;;;;5052079;28;20462;-67
2022/06/05 07:30:33;;;;;;;1999.90;999.90;;;20.50;99.90;;;;;;5050682;28;20512;-66
2022/06/05 07:32:59;;;;;;;1999.90;999.90;;;20.70;99.90;;;;;;5048051;28;20439;-65
2022/06/05 07:35:26;;;;;;;1999.90;999.90;;;20.80;99.90;;;;;;5052966;28;20523;-67
2022/06/05 07:37:52;;;;;;;1999.90;999.90;;;20.90;99.90;;;;;;5046569;28;20470;-69
2022/06/05 07:40:19;;;;;;;1999.90;999.90;;;21.10;99.90;;;;;;5053325;28;20511;-69
2022/06/05 07:42:46;;;;;;;1999.90;999.90;;;21.20;99.90;;;;;;5054207;28;21024;-68
2022/06/05 07:45:14;;;;;;;1999.90;999.90;;;21.40;99.90;;;;;;5053253;28;20477;-69
2022/06/05 07:47:43;;;;;;;1999.90;999.90;;;21.40;99.90;;;;;;5054051;28;20430;-68
2022/06/05 07:50:11;;;;;;;1999.90;999.90;;;21.30;99.90;;;;;;5053321;28;20442;-68
2022/06/05 07:55:22;;;;;;;1999.90;999.90;;;21.70;99.90;;;;;;5051349;28;20604;-68
2022/06/05 07:57:49;;;;;;;1999.90;999.90;;;21.60;99.90;;;;;;5051098;28;20470;-70
2022/06/05 08:00:16;;;;;;;1999.90;999.90;;;21.80;99.90;;;;;;5052241;28;20462;-69
2022/06/05 08:02:44;;;;;;;1999.90;999.90;;;22.00;99.90;;;;;;5050980;28;20543;-69
2022/06/05 08:05:11;;;;;;;1999.90;999.90;;;21.90;99.90;;;;;;5050911;28;20478;-68
2022/06/05 08:07:38;;;;;;;1999.90;999.90;;;21.90;99.90;;;;;;5047812;28;20470;-66
2022/06/05 08:10:06;;;;;;;1999.90;999.90;;;21.90;99.90;;;;;;5049518;28;20466;-68
2022/06/05 08:12:35;;;;;;;1999.90;999.90;;;22.10;99.90;;;;;;5051280;28;20462;-69
2022/06/05 08:15:04;;;;;;;1999.90;999.90;;;22.20;99.90;;;;;;5051208;28;20571;-69
2022/06/05 08:17:32;;;;;;;1999.90;999.90;;;22.40;99.90;;;;;;5051518;28;20462;-67
2022/06/05 08:20:00;;;;;;;1999.90;999.90;;;22.80;99.90;;;;;;5051067;28;20470;-70
2022/06/05 08:22:28;;;;;;;1999.90;999.90;;;22.80;99.90;;;;;;5051502;28;20906;-69
2022/06/05 08:24:55;;;;;;;1999.90;999.90;;;22.80;99.90;;;;;;5050912;28;20520;-69
2022/06/05 08:27:24;;;;;;;1999.90;999.90;;;22.70;99.90;;;;;;5051176;28;20942;-69
2022/06/05 08:29:50;;;;;;;1999.90;999.90;;;22.60;99.90;;;;;;5050114;28;20470;-68
2022/06/05 08:32:18;;;;;;;1999.90;999.90;;;22.70;99.90;;;;;;5050735;28;21126;-69
2022/06/05 08:34:45;;;;;;;1999.90;999.90;;;23.00;99.90;;;;;;5049793;28;21162;-69
2022/06/05 08:43:16;;;;;;;1999.90;999.90;;;23.30;99.90;;;;;;5049685;28;20465;-67
2022/06/05 08:45:50;;;;;;;1999.90;999.90;;;23.30;99.90;;;;;;5052414;28;21047;-70
2022/06/05 08:48:23;;;;;;;1999.90;999.90;;;23.20;99.90;;;;;;5051005;28;20523;-69
2022/06/05 08:50:54;;;;;;;1999.90;999.90;;;23.20;99.90;;;;;;5048770;28;20881;-69
2022/06/05 08:53:31;;;;;;;1999.90;999.90;;;23.20;99.90;;;;;;5048667;28;20540;-70
2022/06/05 08:56:00;;;;;;;1999.90;999.90;;;22.90;99.90;;;;;;5048009;28;20531;-69
2022/06/05 08:58:31;;;;;;;1999.90;999.90;;;22.70;99.90;;;;;;5050155;28;20469;-66
2022/06/05 09:01:02;;;;;;;1999.90;999.90;;;23.00;99.90;;;;;;5049769;28;20477;-67
2022/06/05 09:03:34;;;;;;;1999.90;999.90;;;23.20;99.90;;;;;;5052640;28;20438;-68
2022/06/05 09:06:05;;;;;;;1999.90;999.90;;;23.20;99.90;;;;;;5051560;28;20519;-68
2022/06/05 09:08:37;;;;;;;1999.90;999.90;;;23.10;99.90;;;;;;5050420;28;20478;-69
2022/06/05 09:11:06;;;;;;;1999.90;999.90;;;23.10;99.90;;;;;;5049814;28;20458;-68
2022/06/05 09:13:45;;;;;;;1999.90;999.90;;;23.40;99.90;;;;;;5050043;28;20550;-67
2022/06/05 09:16:15;;;;;;;1999.90;999.90;;;23.40;99.90;;;;;;5049457;28;20531;-67
2022/06/05 09:18:46;;;;;;;1999.90;999.90;;;23.30;99.90;;;;;;5044254;28;20462;-69
2022/06/05 09:21:22;;;;;;;1999.90;999.90;;;23.20;99.90;;;;;;5049987;28;20466;-68
2022/06/05 09:23:59;;;;;;;1999.90;999.90;;;23.30;99.90;;;;;;5049695;28;20462;-67
2022/06/05 09:26:40;;;;;;;1999.90;999.90;;;23.50;99.90;;;;;;5048078;28;20556;-68
2022/06/05 09:29:26;;;;;;;1999.90;999.90;;;23.50;99.90;;;;;;5049390;28;20962;-67
2022/06/05 09:32:10;;;;;;;1999.90;999.90;;;23.40;99.90;;;;;;5048582;28;20458;-69
2022/06/05 09:34:42;;;;;;;1999.90;999.90;;;23.40;99.90;;;;;;5049919;28;20469;-68
2022/06/05 09:37:16;;;;;;;1999.90;999.90;;;23.60;99.90;;;;;;5048061;28;20457;-66
2022/06/05 09:39:50;;;;;;;1999.90;999.90;;;24.00;99.90;;;;;;5048849;28;20495;-67
2022/06/05 09:42:30;;;;;;;1999.90;999.90;;;24.50;99.90;;;;;;5047157;28;20524;-68
2022/06/05 09:45:13;;;;;;;1999.90;999.90;;;24.50;99.90;;;;;;5048977;28;20599;-67
2022/06/05 09:47:47;;;;;;;1999.90;999.90;;;24.80;99.90;;;;;;5046033;28;21019;-67
2022/06/05 09:50:22;;;;;;;1999.90;999.90;;;24.90;99.70;;;;;;5048767;28;20879;-68
2022/06/05 09:52:50;;;;;;;1999.90;999.90;;;24.80;99.40;;;;;;5049125;28;20450;-67
2022/06/05 09:55:20;;;;;;;1999.90;999.90;;;24.70;99.80;;;;;;5046032;28;20532;-66
2022/06/05 10:00:48;;;;;;;1999.90;999.90;;;24.90;99.30;;;;;;5046592;28;20449;-66
2022/06/05 10:03:17;;;;;;;1999.90;999.90;;;24.70;99.80;;;;;;5050033;28;20547;-67
2022/06/05 10:06:05;;;;;;;1999.90;999.90;;;24.90;99.80;;;;;;5048660;28;20485;-67
2022/06/05 10:08:41;;;;;;;1999.90;999.90;;;24.80;99.40;;;;;;5046397;28;20475;-67
2022/06/05 10:11:23;;;;;;;1999.90;999.90;;;25.10;99.50;;;;;;5046383;28;20961;-67
2022/06/05 10:13:58;;;;;;;1999.90;999.90;;;24.90;98.90;;;;;;5047123;28;20557;-66
2022/06/05 10:16:29;;;;;;;1999.90;999.90;;;24.90;99.00;;;;;;5045849;28;20490;-67
2022/06/05 10:19:05;;;;;;;1999.90;999.90;;;25.10;99.20;;;;;;5050357;28;20465;-67
2022/06/05 10:21:36;;;;;;;1999.90;999.90;;;25.00;99.20;;;;;;5049268;28;20595;-66
2022/06/05 10:24:18;;;;;;;1999.90;999.90;;;25.00;98.80;;;;;;5048676;28;20531;-67
2022/06/05 10:26:49;;;;;;;1999.90;999.90;;;25.10;98.70;;;;;;5046545;28;20544;-68
2022/06/05 10:29:20;;;;;;;1999.90;999.90;;;25.10;98.70;;;;;;5050597;28;20465;-67
2022/06/05 10:31:54;;;;;;;1999.90;999.90;;;25.00;98.90;;;;;;5049796;28;21023;-67
2022/06/05 10:34:28;;;;;;;1999.90;999.90;;;24.90;98.20;;;;;;5050322;28;20489;-67
2022/06/05 10:37:03;;;;;;;1999.90;999.90;;;24.70;98.70;;;;;;5048874;28;20470;-66
2022/06/05 10:39:41;;;;;;;1999.90;999.90;;;24.60;99.00;;;;;;5052844;28;20454;-67
2022/06/05 10:42:27;;;;;;;1999.90;999.90;;;24.90;98.40;;;;;;5051422;28;20532;-67
2022/06/05 10:45:09;;;;;;;1999.90;999.90;;;25.20;98.50;;;;;;5049424;28;20841;-67
2022/06/05 10:47:43;;;;;;;1999.90;999.90;;;25.30;98.40;;;;;;5048917;28;20472;-67
2022/06/05 10:50:17;;;;;;;1999.90;999.90;;;25.10;98.00;;;;;;5047991;28;20488;-68
2022/06/05 10:52:48;;;;;;;1999.90;999.90;;;25.10;98.10;;;;;;5049831;28;20470;-67
2022/06/05 10:55:38;;;;;;;1999.90;999.90;;;25.00;98.50;;;;;;5052899;28;20478;-67
2022/06/05 10:58:17;;;;;;;1999.90;999.90;;;25.10;98.50;;;;;;5050546;28;20474;-67
2022/06/05 11:00:59;;;;;;;1999.90;999.90;;;25.30;98.30;;;;;;5051582;28;20465;-68
2022/06/05 11:03:37;;;;;;;1999.90;999.90;;;25.10;98.20;;;;;;5051504;28;20540;-67
2022/06/05 11:06:18;;;;;;;1999.90;999.90;;;25.10;98.40;;;;;;5051070;28;21237;-67
2022/06/05 11:08:56;;;;;;;1999.90;999.90;;;25.30;97.90;;;;;;5048418;28;20445;-67
2022/06/05 11:14:21;;;;;;;1999.90;999.90;;;25.30;98.10;;;;;;5052424;28;20457;-68
2022/06/05 11:16:54;;;;;;;1999.90;999.90;;;25.40;98.10;;;;;;5051791;28;20477;-68
2022/06/05 11:19:32;;;;;;;1999.90;999.90;;;25.60;97.50;;;;;;5050734;28;21019;-64
2022/06/05 11:22:02;;;;;;;1999.90;999.90;;;25.80;97.70;;;;;;5049613;28;20532;-65
2022/06/05 11:24:32;;;;;;;1999.90;999.90;;;25.90;97.10;;;;;;5052931;28;20461;-65
2022/06/05 11:27:08;;;;;;;1999.90;999.90;;;25.80;96.60;;;;;;5049977;28;20987;-66
2022/06/05 11:29:46;;;;;;;1999.90;999.90;;;26.00;97.00;;;;;;5050861;28;20465;-67
2022/06/05 11:32:36;;;;;;;1999.90;999.90;;;26.00;96.40;;;;;;5051318;28;21019;-65
2022/06/05 11:35:16;;;;;;;1999.90;999.90;;;26.20;96.20;;;;;;5053967;28;20527;-67
2022/06/05 11:37:54;;;;;;;1999.90;999.90;;;26.20;96.30;;;;;;5045239;28;20949;-66
2022/06/05 11:40:46;;;;;;;1999.90;999.90;;;26.20;95.90;;;;;;5053977;28;20484;-67
2022/06/05 11:43:31;;;;;;;1999.90;999.90;;;26.30;95.30;;;;;;5054524;28;20493;-66
2022/06/05 11:46:06;;;;;;;1999.90;999.90;;;26.30;95.20;;;;;;5077311;22;21014;-68
2022/06/05 11:48:38;;;;;;;1999.90;999.90;;;26.20;95.20;;;;;;5094078;28;20863;-69
2022/06/05 11:51:12;;;;;;;1999.90;999.90;;;26.20;95.30;;;;;;5094732;28;20498;-69
2022/06/05 11:53:47;;;;;;;1999.90;999.90;;;26.20;95.50;;;;;;5095024;28;20436;-69
2022/06/05 11:56:26;;;;;;;1999.90;999.90;;;26.50;95.00;;;;;;5087078;28;20523;-69
2022/06/05 11:59:01;;;;;;;1999.90;999.90;;;26.50;94.60;;;;;;5074752;28;20421;-68
2022/06/05 12:01:34;;;;;;;1999.90;999.90;;;26.20;94.50;;;;;;5066985;28;20438;-69
2022/06/05 12:04:11;;;;;;;1999.90;999.90;;;26.20;95.30;;;;;;5071233;28;20480;-69
2022/06/05 12:06:42;;;;;;;1999.90;999.90;;;26.00;95.00;;;;;;5074678;28;20514;-71
2022/06/05 12:09:15;;;;;;;1999.90;999.90;;;25.90;94.80;;;;;;5073856;28;20464;-71
2022/06/05 12:11:47;;;;;;;1999.90;999.90;;;25.90;94.80;;;;;;5074198;28;20430;-71
2022/06/05 12:14:21;;;;;;;1999.90;999.90;;;26.00;95.40;;;;;;5057759;28;20454;-71
2022/06/05 12:16:53;;;;;;;1999.90;999.90;;;25.90;94.90;;;;;;5053553;28;20882;-70
2022/06/05 12:19:31;;;;;;;1999.90;999.90;;;25.80;95.10;;;;;;5053749;28;20438;-71
2022/06/05 12:22:05;;;;;;;1999.90;999.90;;;25.70;95.20;;;;;;5054184;28;20584;-70
2022/06/05 12:24:39;;;;;;;1999.90;999.90;;;26.00;95.10;;;;;;5053587;28;20435;-70
2022/06/05 12:27:11;;;;;;;1999.90;999.90;;;26.20;94.80;;;;;;5053531;28;20511;-69
2022/06/05 12:29:45;;;;;;;1999.90;999.90;;;26.20;94.30;;;;;;5052636;28;20438;-71
2022/06/05 12:32:21;;;;;;;1999.90;999.90;;;26.00;94.60;;;;;;5053416;28;20472;-70
2022/06/05 12:34:51;;;;;;;1999.90;999.90;;;25.90;94.60;;;;;;5053776;28;20430;-70
2022/06/05 12:37:22;;;;;;;1999.90;999.90;;;25.90;94.70;;;;;;5054320;28;20528;-71